sensor_id;sensor_type;location;lat;lon;timestamp;P1;durP1;ratioP1;P2;durP2;ratioP2
11817;SDS011;5966;52.402;5.322;2022-09-21T00:00:37;2.97;;;1.03;;
11817;SDS011;5966;52.402;5.322;2022-09-21T00:03:05;2.90;;;1.10;;
11817;SDS011;5966;52.402;5.322;2022-09-21T00:05:34;2.57;;;0.90;;
11817;SDS011;5966;52.402;5.322;2022-09-21T00:08:03;5.70;;;1.00;;
11817;SDS011;5966;52.402;5.322;2022-09-21T00:10:33;1.20;;;0.70;;
11817;SDS011;5966;52.402;5.322;2022-09-21T00:13:03;1.90;;;0.93;;
11817;SDS011;5966;52.402;5.322;2022-09-21T00:15:31;1.77;;;1.00;;
11817;SDS011;5966;52.402;5.322;2022-09-21T00:18:00;3.47;;;0.90;;
11817;SDS011;5966;52.402;5.322;2022-09-21T00:20:29;0.90;;;0.70;;
11817;SDS011;5966;52.402;5.322;2022-09-21T00:22:57;3.80;;;1.03;;
11817;SDS011;5966;52.402;5.322;2022-09-21T00:25:40;3.07;;;1.00;;
11817;SDS011;5966;52.402;5.322;2022-09-21T00:28:10;3.30;;;1.07;;
11817;SDS011;5966;52.402;5.322;2022-09-21T00:30:42;4.33;;;0.87;;
11817;SDS011;5966;52.402;5.322;2022-09-21T00:33:16;1.30;;;0.77;;
11817;SDS011;5966;52.402;5.322;2022-09-21T00:35:45;2.70;;;1.23;;
11817;SDS011;5966;52.402;5.322;2022-09-21T00:38:13;2.67;;;1.00;;
11817;SDS011;5966;52.402;5.322;2022-09-21T00:40:41;1.50;;;0.97;;
11817;SDS011;5966;52.402;5.322;2022-09-21T00:43:12;2.53;;;1.03;;
11817;SDS011;5966;52.402;5.322;2022-09-21T00:45:40;4.00;;;1.00;;
11817;SDS011;5966;52.402;5.322;2022-09-21T00:48:09;4.33;;;1.50;;
11817;SDS011;5966;52.402;5.322;2022-09-21T00:50:38;2.80;;;0.60;;
11817;SDS011;5966;52.402;5.322;2022-09-21T00:53:12;2.20;;;1.10;;
11817;SDS011;5966;52.402;5.322;2022-09-21T00:55:42;3.40;;;1.37;;
11817;SDS011;5966;52.402;5.322;2022-09-21T00:58:16;1.77;;;1.00;;
11817;SDS011;5966;52.402;5.322;2022-09-21T01:00:50;2.70;;;1.20;;
11817;SDS011;5966;52.402;5.322;2022-09-21T01:03:21;4.70;;;1.20;;
11817;SDS011;5966;52.402;5.322;2022-09-21T01:05:49;3.10;;;1.00;;
11817;SDS011;5966;52.402;5.322;2022-09-21T01:08:17;3.23;;;1.00;;
11817;SDS011;5966;52.402;5.322;2022-09-21T01:10:52;4.23;;;1.13;;
11817;SDS011;5966;52.402;5.322;2022-09-21T01:13:37;3.90;;;1.17;;
11817;SDS011;5966;52.402;5.322;2022-09-21T01:16:25;1.23;;;0.93;;
11817;SDS011;5966;52.402;5.322;2022-09-21T01:19:01;2.27;;;0.90;;
11817;SDS011;5966;52.402;5.322;2022-09-21T01:21:43;2.73;;;1.43;;
11817;SDS011;5966;52.402;5.322;2022-09-21T01:24:28;2.93;;;0.93;;
11817;SDS011;5966;52.402;5.322;2022-09-21T01:27:14;1.47;;;0.80;;
11817;SDS011;5966;52.402;5.322;2022-09-21T01:30:03;2.23;;;1.33;;
11817;SDS011;5966;52.402;5.322;2022-09-21T01:32:36;2.87;;;1.47;;
11817;SDS011;5966;52.402;5.322;2022-09-21T01:35:09;2.73;;;1.17;;
11817;SDS011;5966;52.402;5.322;2022-09-21T01:37:40;1.83;;;1.30;;
11817;SDS011;5966;52.402;5.322;2022-09-21T01:40:12;3.00;;;1.10;;
11817;SDS011;5966;52.402;5.322;2022-09-21T01:42:44;3.73;;;1.30;;
11817;SDS011;5966;52.402;5.322;2022-09-21T01:45:19;2.53;;;1.20;;
11817;SDS011;5966;52.402;5.322;2022-09-21T01:47:53;2.50;;;1.13;;
11817;SDS011;5966;52.402;5.322;2022-09-21T01:50:23;3.53;;;1.60;;
11817;SDS011;5966;52.402;5.322;2022-09-21T01:52:57;1.10;;;1.00;;
11817;SDS011;5966;52.402;5.322;2022-09-21T01:55:30;2.97;;;1.23;;
11817;SDS011;5966;52.402;5.322;2022-09-21T01:58:06;2.63;;;1.20;;
11817;SDS011;5966;52.402;5.322;2022-09-21T02:00:41;2.03;;;1.13;;
11817;SDS011;5966;52.402;5.322;2022-09-21T02:03:14;3.87;;;1.37;;
11817;SDS011;5966;52.402;5.322;2022-09-21T02:05:54;2.43;;;1.17;;
11817;SDS011;5966;52.402;5.322;2022-09-21T02:08:23;2.00;;;1.10;;
11817;SDS011;5966;52.402;5.322;2022-09-21T02:10:53;2.03;;;1.33;;
11817;SDS011;5966;52.402;5.322;2022-09-21T02:13:22;2.57;;;1.37;;
11817;SDS011;5966;52.402;5.322;2022-09-21T02:16:00;2.57;;;1.37;;
11817;SDS011;5966;52.402;5.322;2022-09-21T02:18:42;3.63;;;1.50;;
11817;SDS011;5966;52.402;5.322;2022-09-21T02:21:22;2.73;;;1.40;;
11817;SDS011;5966;52.402;5.322;2022-09-21T02:23:59;3.47;;;1.63;;
11817;SDS011;5966;52.402;5.322;2022-09-21T02:26:34;2.90;;;1.80;;
11817;SDS011;5966;52.402;5.322;2022-09-21T02:29:12;4.73;;;2.20;;
11817;SDS011;5966;52.402;5.322;2022-09-21T02:31:50;3.37;;;2.10;;
11817;SDS011;5966;52.402;5.322;2022-09-21T02:34:23;3.87;;;2.20;;
11817;SDS011;5966;52.402;5.322;2022-09-21T02:37:00;3.40;;;1.90;;
11817;SDS011;5966;52.402;5.322;2022-09-21T02:39:38;5.27;;;2.30;;
11817;SDS011;5966;52.402;5.322;2022-09-21T02:42:15;3.23;;;2.17;;
11817;SDS011;5966;52.402;5.322;2022-09-21T02:44:46;3.73;;;1.93;;
11817;SDS011;5966;52.402;5.322;2022-09-21T02:47:23;3.60;;;1.97;;
11817;SDS011;5966;52.402;5.322;2022-09-21T02:49:57;3.30;;;2.17;;
11817;SDS011;5966;52.402;5.322;2022-09-21T02:52:30;6.60;;;2.13;;
11817;SDS011;5966;52.402;5.322;2022-09-21T02:55:00;2.23;;;1.77;;
11817;SDS011;5966;52.402;5.322;2022-09-21T02:57:32;5.10;;;2.00;;
11817;SDS011;5966;52.402;5.322;2022-09-21T03:00:02;2.10;;;1.90;;
11817;SDS011;5966;52.402;5.322;2022-09-21T03:02:37;3.30;;;1.90;;
11817;SDS011;5966;52.402;5.322;2022-09-21T03:05:07;3.70;;;2.00;;
11817;SDS011;5966;52.402;5.322;2022-09-21T03:07:37;2.83;;;1.83;;
11817;SDS011;5966;52.402;5.322;2022-09-21T03:10:05;2.10;;;1.90;;
11817;SDS011;5966;52.402;5.322;2022-09-21T03:12:34;3.00;;;1.63;;
11817;SDS011;5966;52.402;5.322;2022-09-21T03:15:03;3.90;;;1.97;;
11817;SDS011;5966;52.402;5.322;2022-09-21T03:17:31;2.00;;;1.63;;
11817;SDS011;5966;52.402;5.322;2022-09-21T03:20:01;4.87;;;1.90;;
11817;SDS011;5966;52.402;5.322;2022-09-21T03:22:29;4.03;;;1.93;;
11817;SDS011;5966;52.402;5.322;2022-09-21T03:24:57;3.23;;;2.00;;
11817;SDS011;5966;52.402;5.322;2022-09-21T03:27:25;2.30;;;1.63;;
11817;SDS011;5966;52.402;5.322;2022-09-21T03:29:53;3.93;;;1.80;;
11817;SDS011;5966;52.402;5.322;2022-09-21T03:32:27;3.83;;;2.13;;
11817;SDS011;5966;52.402;5.322;2022-09-21T03:34:54;2.30;;;1.87;;
11817;SDS011;5966;52.402;5.322;2022-09-21T03:37:24;1.93;;;1.70;;
11817;SDS011;5966;52.402;5.322;2022-09-21T03:39:52;3.30;;;1.80;;
11817;SDS011;5966;52.402;5.322;2022-09-21T03:42:20;2.07;;;1.70;;
11817;SDS011;5966;52.402;5.322;2022-09-21T03:44:48;2.53;;;1.50;;
11817;SDS011;5966;52.402;5.322;2022-09-21T03:47:15;2.27;;;2.00;;
11817;SDS011;5966;52.402;5.322;2022-09-21T03:49:43;3.20;;;1.87;;
11817;SDS011;5966;52.402;5.322;2022-09-21T03:52:11;5.47;;;2.10;;
11817;SDS011;5966;52.402;5.322;2022-09-21T03:54:41;3.40;;;2.33;;
11817;SDS011;5966;52.402;5.322;2022-09-21T03:57:08;1.97;;;1.77;;
11817;SDS011;5966;52.402;5.322;2022-09-21T03:59:36;2.77;;;1.97;;
11817;SDS011;5966;52.402;5.322;2022-09-21T04:02:04;4.17;;;1.90;;
11817;SDS011;5966;52.402;5.322;2022-09-21T04:04:32;2.47;;;1.60;;
11817;SDS011;5966;52.402;5.322;2022-09-21T04:07:00;4.83;;;2.03;;
11817;SDS011;5966;52.402;5.322;2022-09-21T04:09:28;5.37;;;1.73;;
11817;SDS011;5966;52.402;5.322;2022-09-21T04:11:58;1.90;;;1.50;;
11817;SDS011;5966;52.402;5.322;2022-09-21T04:14:26;3.30;;;1.60;;
11817;SDS011;5966;52.402;5.322;2022-09-21T04:16:54;3.07;;;1.87;;
11817;SDS011;5966;52.402;5.322;2022-09-21T04:19:22;3.33;;;1.90;;
11817;SDS011;5966;52.402;5.322;2022-09-21T04:21:50;3.50;;;1.73;;
11817;SDS011;5966;52.402;5.322;2022-09-21T04:24:18;3.53;;;2.20;;
11817;SDS011;5966;52.402;5.322;2022-09-21T04:26:46;4.07;;;2.33;;
11817;SDS011;5966;52.402;5.322;2022-09-21T04:29:16;2.87;;;2.30;;
11817;SDS011;5966;52.402;5.322;2022-09-21T04:31:44;5.97;;;2.27;;
11817;SDS011;5966;52.402;5.322;2022-09-21T04:34:12;4.13;;;1.90;;
11817;SDS011;5966;52.402;5.322;2022-09-21T04:36:40;2.70;;;1.47;;
11817;SDS011;5966;52.402;5.322;2022-09-21T04:39:08;7.37;;;2.03;;
11817;SDS011;5966;52.402;5.322;2022-09-21T04:41:36;2.43;;;1.63;;
11817;SDS011;5966;52.402;5.322;2022-09-21T04:44:04;1.70;;;1.50;;
11817;SDS011;5966;52.402;5.322;2022-09-21T04:46:34;2.43;;;1.50;;
11817;SDS011;5966;52.402;5.322;2022-09-21T04:49:02;1.90;;;1.13;;
11817;SDS011;5966;52.402;5.322;2022-09-21T04:51:30;2.80;;;1.50;;
11817;SDS011;5966;52.402;5.322;2022-09-21T04:53:58;1.53;;;1.30;;
11817;SDS011;5966;52.402;5.322;2022-09-21T04:56:26;2.60;;;1.70;;
11817;SDS011;5966;52.402;5.322;2022-09-21T04:58:54;3.50;;;1.73;;
11817;SDS011;5966;52.402;5.322;2022-09-21T05:01:22;4.70;;;1.70;;
11817;SDS011;5966;52.402;5.322;2022-09-21T05:03:52;2.97;;;1.80;;
11817;SDS011;5966;52.402;5.322;2022-09-21T05:06:29;6.27;;;1.57;;
11817;SDS011;5966;52.402;5.322;2022-09-21T05:08:58;1.80;;;1.40;;
11817;SDS011;5966;52.402;5.322;2022-09-21T05:11:44;1.60;;;1.50;;
11817;SDS011;5966;52.402;5.322;2022-09-21T05:14:12;1.50;;;1.40;;
11817;SDS011;5966;52.402;5.322;2022-09-21T05:16:43;2.40;;;1.40;;
11817;SDS011;5966;52.402;5.322;2022-09-21T05:19:17;1.77;;;1.67;;
11817;SDS011;5966;52.402;5.322;2022-09-21T05:21:45;2.30;;;1.30;;
11817;SDS011;5966;52.402;5.322;2022-09-21T05:24:13;3.43;;;1.43;;
11817;SDS011;5966;52.402;5.322;2022-09-21T05:26:40;3.40;;;1.30;;
11817;SDS011;5966;52.402;5.322;2022-09-21T05:29:21;2.47;;;1.20;;
11817;SDS011;5966;52.402;5.322;2022-09-21T05:31:50;2.80;;;2.00;;
11817;SDS011;5966;52.402;5.322;2022-09-21T05:34:30;3.00;;;1.30;;
11817;SDS011;5966;52.402;5.322;2022-09-21T05:37:06;3.73;;;1.50;;
11817;SDS011;5966;52.402;5.322;2022-09-21T05:39:37;3.60;;;1.70;;
11817;SDS011;5966;52.402;5.322;2022-09-21T05:42:07;3.27;;;1.73;;
11817;SDS011;5966;52.402;5.322;2022-09-21T05:44:36;1.73;;;1.60;;
11817;SDS011;5966;52.402;5.322;2022-09-21T05:47:06;5.47;;;1.80;;
11817;SDS011;5966;52.402;5.322;2022-09-21T05:49:51;2.10;;;1.43;;
11817;SDS011;5966;52.402;5.322;2022-09-21T05:52:27;3.30;;;1.70;;
11817;SDS011;5966;52.402;5.322;2022-09-21T05:55:02;3.73;;;1.60;;
11817;SDS011;5966;52.402;5.322;2022-09-21T05:57:38;4.43;;;1.90;;
11817;SDS011;5966;52.402;5.322;2022-09-21T06:00:14;3.23;;;1.90;;
11817;SDS011;5966;52.402;5.322;2022-09-21T06:02:49;2.70;;;1.90;;
11817;SDS011;5966;52.402;5.322;2022-09-21T06:05:35;3.80;;;1.47;;
11817;SDS011;5966;52.402;5.322;2022-09-21T06:08:04;2.73;;;1.73;;
11817;SDS011;5966;52.402;5.322;2022-09-21T06:10:39;2.53;;;1.60;;
11817;SDS011;5966;52.402;5.322;2022-09-21T06:13:07;6.33;;;2.00;;
11817;SDS011;5966;52.402;5.322;2022-09-21T06:15:36;2.37;;;1.70;;
11817;SDS011;5966;52.402;5.322;2022-09-21T06:21:28;3.33;;;1.63;;
11817;SDS011;5966;52.402;5.322;2022-09-21T06:23:56;2.77;;;1.57;;
11817;SDS011;5966;52.402;5.322;2022-09-21T06:26:24;5.30;;;2.10;;
11817;SDS011;5966;52.402;5.322;2022-09-21T06:28:53;2.27;;;1.43;;
11817;SDS011;5966;52.402;5.322;2022-09-21T06:31:24;2.80;;;1.70;;
11817;SDS011;5966;52.402;5.322;2022-09-21T06:33:53;3.40;;;1.60;;
11817;SDS011;5966;52.402;5.322;2022-09-21T06:36:21;3.03;;;1.63;;
11817;SDS011;5966;52.402;5.322;2022-09-21T06:38:54;2.47;;;1.80;;
11817;SDS011;5966;52.402;5.322;2022-09-21T06:41:24;1.93;;;1.77;;
11817;SDS011;5966;52.402;5.322;2022-09-21T06:43:52;4.93;;;2.30;;
11817;SDS011;5966;52.402;5.322;2022-09-21T06:46:26;3.90;;;1.70;;
11817;SDS011;5966;52.402;5.322;2022-09-21T06:48:55;6.07;;;2.07;;
11817;SDS011;5966;52.402;5.322;2022-09-21T06:51:25;3.43;;;1.97;;
11817;SDS011;5966;52.402;5.322;2022-09-21T06:53:57;2.80;;;1.50;;
11817;SDS011;5966;52.402;5.322;2022-09-21T06:56:29;4.03;;;1.90;;
11817;SDS011;5966;52.402;5.322;2022-09-21T06:59:00;3.20;;;1.83;;
11817;SDS011;5966;52.402;5.322;2022-09-21T07:02:03;4.37;;;1.60;;
11817;SDS011;5966;52.402;5.322;2022-09-21T07:04:32;2.77;;;2.20;;
11817;SDS011;5966;52.402;5.322;2022-09-21T07:07:01;4.23;;;1.80;;
11817;SDS011;5966;52.402;5.322;2022-09-21T07:09:31;5.23;;;1.30;;
11817;SDS011;5966;52.402;5.322;2022-09-21T07:12:19;1.50;;;1.40;;
11817;SDS011;5966;52.402;5.322;2022-09-21T07:14:54;3.13;;;2.00;;
11817;SDS011;5966;52.402;5.322;2022-09-21T07:17:23;5.40;;;1.70;;
11817;SDS011;5966;52.402;5.322;2022-09-21T07:19:59;1.80;;;1.50;;
11817;SDS011;5966;52.402;5.322;2022-09-21T07:22:28;2.03;;;1.63;;
11817;SDS011;5966;52.402;5.322;2022-09-21T07:25:27;2.60;;;1.80;;
11817;SDS011;5966;52.402;5.322;2022-09-21T07:27:58;1.70;;;1.60;;
11817;SDS011;5966;52.402;5.322;2022-09-21T07:30:30;2.13;;;1.93;;
11817;SDS011;5966;52.402;5.322;2022-09-21T07:33:01;2.67;;;1.80;;
11817;SDS011;5966;52.402;5.322;2022-09-21T07:35:53;3.13;;;2.10;;
11817;SDS011;5966;52.402;5.322;2022-09-21T07:38:52;2.87;;;1.90;;
11817;SDS011;5966;52.402;5.322;2022-09-21T07:41:22;6.30;;;2.00;;
11817;SDS011;5966;52.402;5.322;2022-09-21T07:43:50;2.87;;;1.70;;
11817;SDS011;5966;52.402;5.322;2022-09-21T07:46:22;3.87;;;1.70;;
11817;SDS011;5966;52.402;5.322;2022-09-21T07:49:19;4.13;;;2.10;;
11817;SDS011;5966;52.402;5.322;2022-09-21T07:51:55;3.07;;;1.63;;
11817;SDS011;5966;52.402;5.322;2022-09-21T07:54:37;4.73;;;1.90;;
11817;SDS011;5966;52.402;5.322;2022-09-21T07:57:07;3.97;;;1.83;;
11817;SDS011;5966;52.402;5.322;2022-09-21T07:59:57;4.63;;;1.83;;
11817;SDS011;5966;52.402;5.322;2022-09-21T08:02:28;3.83;;;1.80;;
11817;SDS011;5966;52.402;5.322;2022-09-21T08:05:16;2.10;;;1.27;;
11817;SDS011;5966;52.402;5.322;2022-09-21T08:07:50;3.60;;;1.87;;
11817;SDS011;5966;52.402;5.322;2022-09-21T08:10:38;3.13;;;1.67;;
11817;SDS011;5966;52.402;5.322;2022-09-21T08:13:11;4.03;;;2.50;;
11817;SDS011;5966;52.402;5.322;2022-09-21T08:16:01;3.03;;;1.83;;
11817;SDS011;5966;52.402;5.322;2022-09-21T08:19:41;2.63;;;1.70;;
11817;SDS011;5966;52.402;5.322;2022-09-21T08:22:09;4.33;;;1.70;;
11817;SDS011;5966;52.402;5.322;2022-09-21T08:24:40;3.30;;;1.53;;
11817;SDS011;5966;52.402;5.322;2022-09-21T08:27:11;3.37;;;1.60;;
11817;SDS011;5966;52.402;5.322;2022-09-21T08:29:49;4.00;;;1.50;;
11817;SDS011;5966;52.402;5.322;2022-09-21T08:32:24;2.43;;;1.50;;
11817;SDS011;5966;52.402;5.322;2022-09-21T08:35:16;4.13;;;2.00;;
11817;SDS011;5966;52.402;5.322;2022-09-21T08:37:48;2.47;;;1.47;;
11817;SDS011;5966;52.402;5.322;2022-09-21T08:43:41;4.37;;;1.97;;
11817;SDS011;5966;52.402;5.322;2022-09-21T08:46:12;4.00;;;1.53;;
11817;SDS011;5966;52.402;5.322;2022-09-21T08:48:46;4.43;;;1.60;;
11817;SDS011;5966;52.402;5.322;2022-09-21T08:51:27;3.90;;;1.93;;
11817;SDS011;5966;52.402;5.322;2022-09-21T08:54:39;4.47;;;2.10;;
11817;SDS011;5966;52.402;5.322;2022-09-21T08:57:43;3.60;;;1.67;;
11817;SDS011;5966;52.402;5.322;2022-09-21T09:00:12;5.83;;;2.27;;
11817;SDS011;5966;52.402;5.322;2022-09-21T09:05:55;5.70;;;1.67;;
11817;SDS011;5966;52.402;5.322;2022-09-21T09:08:40;5.47;;;1.57;;
11817;SDS011;5966;52.402;5.322;2022-09-21T09:12:23;3.30;;;1.37;;
11817;SDS011;5966;52.402;5.322;2022-09-21T09:18:38;5.77;;;1.70;;
11817;SDS011;5966;52.402;5.322;2022-09-21T09:21:30;2.47;;;1.47;;
11817;SDS011;5966;52.402;5.322;2022-09-21T09:24:03;3.80;;;1.20;;
11817;SDS011;5966;52.402;5.322;2022-09-21T09:26:41;3.43;;;1.43;;
11817;SDS011;5966;52.402;5.322;2022-09-21T09:29:32;2.13;;;1.33;;
11817;SDS011;5966;52.402;5.322;2022-09-21T09:32:14;2.73;;;1.27;;
11817;SDS011;5966;52.402;5.322;2022-09-21T09:35:04;4.27;;;1.40;;
11817;SDS011;5966;52.402;5.322;2022-09-21T09:38:03;6.10;;;1.37;;
11817;SDS011;5966;52.402;5.322;2022-09-21T09:40:47;4.23;;;1.60;;
11817;SDS011;5966;52.402;5.322;2022-09-21T09:43:46;4.83;;;1.30;;
11817;SDS011;5966;52.402;5.322;2022-09-21T09:46:30;3.43;;;1.40;;
11817;SDS011;5966;52.402;5.322;2022-09-21T09:49:15;4.90;;;1.20;;
11817;SDS011;5966;52.402;5.322;2022-09-21T09:51:59;1.97;;;1.23;;
11817;SDS011;5966;52.402;5.322;2022-09-21T09:54:35;2.67;;;1.10;;
11817;SDS011;5966;52.402;5.322;2022-09-21T09:57:06;3.63;;;1.17;;
11817;SDS011;5966;52.402;5.322;2022-09-21T09:59:59;3.33;;;1.17;;
11817;SDS011;5966;52.402;5.322;2022-09-21T10:02:44;4.30;;;1.37;;
11817;SDS011;5966;52.402;5.322;2022-09-21T10:05:39;1.77;;;1.10;;
11817;SDS011;5966;52.402;5.322;2022-09-21T10:11:14;2.70;;;0.90;;
11817;SDS011;5966;52.402;5.322;2022-09-21T10:13:44;5.07;;;1.30;;
11817;SDS011;5966;52.402;5.322;2022-09-21T10:16:13;4.50;;;1.23;;
11817;SDS011;5966;52.402;5.322;2022-09-21T10:18:46;3.70;;;0.93;;
11817;SDS011;5966;52.402;5.322;2022-09-21T10:21:21;2.97;;;1.10;;
11817;SDS011;5966;52.402;5.322;2022-09-21T10:23:51;3.30;;;1.33;;
11817;SDS011;5966;52.402;5.322;2022-09-21T10:26:30;3.00;;;0.80;;
11817;SDS011;5966;52.402;5.322;2022-09-21T10:29:16;1.97;;;0.97;;
11817;SDS011;5966;52.402;5.322;2022-09-21T10:31:53;2.10;;;1.00;;
11817;SDS011;5966;52.402;5.322;2022-09-21T10:34:22;5.20;;;1.20;;
11817;SDS011;5966;52.402;5.322;2022-09-21T10:36:52;3.43;;;1.20;;
11817;SDS011;5966;52.402;5.322;2022-09-21T10:39:28;3.57;;;1.30;;
11817;SDS011;5966;52.402;5.322;2022-09-21T10:42:13;3.27;;;1.03;;
11817;SDS011;5966;52.402;5.322;2022-09-21T10:44:51;4.37;;;1.43;;
11817;SDS011;5966;52.402;5.322;2022-09-21T10:47:36;3.60;;;0.77;;
11817;SDS011;5966;52.402;5.322;2022-09-21T10:50:20;3.67;;;1.13;;
11817;SDS011;5966;52.402;5.322;2022-09-21T10:53:01;2.63;;;0.73;;
11817;SDS011;5966;52.402;5.322;2022-09-21T10:55:41;3.10;;;0.70;;
11817;SDS011;5966;52.402;5.322;2022-09-21T10:58:42;2.73;;;0.87;;
11817;SDS011;5966;52.402;5.322;2022-09-21T11:05:05;2.17;;;0.90;;
11817;SDS011;5966;52.402;5.322;2022-09-21T11:07:39;2.73;;;0.90;;
11817;SDS011;5966;52.402;5.322;2022-09-21T11:10:15;2.37;;;0.77;;
11817;SDS011;5966;52.402;5.322;2022-09-21T11:15:48;4.60;;;1.00;;
11817;SDS011;5966;52.402;5.322;2022-09-21T11:18:25;1.80;;;0.70;;
11817;SDS011;5966;52.402;5.322;2022-09-21T11:24:12;2.67;;;0.40;;
11817;SDS011;5966;52.402;5.322;2022-09-21T11:26:48;2.00;;;0.97;;
11817;SDS011;5966;52.402;5.322;2022-09-21T11:29:21;1.97;;;0.70;;
11817;SDS011;5966;52.402;5.322;2022-09-21T11:32:01;5.10;;;1.40;;
11817;SDS011;5966;52.402;5.322;2022-09-21T11:34:50;1.43;;;0.83;;
11817;SDS011;5966;52.402;5.322;2022-09-21T11:37:37;1.77;;;1.10;;
11817;SDS011;5966;52.402;5.322;2022-09-21T11:40:22;3.10;;;1.03;;
11817;SDS011;5966;52.402;5.322;2022-09-21T11:43:03;3.90;;;1.00;;
11817;SDS011;5966;52.402;5.322;2022-09-21T11:45:53;5.77;;;1.17;;
11817;SDS011;5966;52.402;5.322;2022-09-21T11:48:32;5.17;;;1.20;;
11817;SDS011;5966;52.402;5.322;2022-09-21T11:51:14;4.13;;;1.00;;
11817;SDS011;5966;52.402;5.322;2022-09-21T11:54:03;2.43;;;1.10;;
11817;SDS011;5966;52.402;5.322;2022-09-21T11:59:35;2.43;;;0.80;;
11817;SDS011;5966;52.402;5.322;2022-09-21T12:02:23;2.07;;;0.93;;
11817;SDS011;5966;52.402;5.322;2022-09-21T12:05:12;2.03;;;1.00;;
11817;SDS011;5966;52.402;5.322;2022-09-21T12:07:56;3.37;;;1.27;;
11817;SDS011;5966;52.402;5.322;2022-09-21T12:10:45;1.77;;;0.90;;
11817;SDS011;5966;52.402;5.322;2022-09-21T12:13:27;3.40;;;1.20;;
11817;SDS011;5966;52.402;5.322;2022-09-21T12:16:26;2.03;;;0.80;;
11817;SDS011;5966;52.402;5.322;2022-09-21T12:19:14;2.97;;;1.10;;
11817;SDS011;5966;52.402;5.322;2022-09-21T12:21:57;2.60;;;1.20;;
11817;SDS011;5966;52.402;5.322;2022-09-21T12:24:32;3.10;;;0.83;;
11817;SDS011;5966;52.402;5.322;2022-09-21T12:27:08;2.93;;;0.90;;
11817;SDS011;5966;52.402;5.322;2022-09-21T12:29:44;3.20;;;0.83;;
11817;SDS011;5966;52.402;5.322;2022-09-21T12:32:25;3.10;;;1.07;;
11817;SDS011;5966;52.402;5.322;2022-09-21T12:35:21;3.83;;;1.00;;
11817;SDS011;5966;52.402;5.322;2022-09-21T12:38:00;4.40;;;0.93;;
11817;SDS011;5966;52.402;5.322;2022-09-21T12:40:46;2.20;;;0.80;;
11817;SDS011;5966;52.402;5.322;2022-09-21T12:43:38;4.03;;;1.13;;
11817;SDS011;5966;52.402;5.322;2022-09-21T12:46:36;2.43;;;1.10;;
11817;SDS011;5966;52.402;5.322;2022-09-21T12:49:12;3.40;;;1.00;;
11817;SDS011;5966;52.402;5.322;2022-09-21T12:51:47;1.57;;;0.60;;
11817;SDS011;5966;52.402;5.322;2022-09-21T12:54:24;4.47;;;1.00;;
11817;SDS011;5966;52.402;5.322;2022-09-21T12:57:13;1.60;;;0.73;;
11817;SDS011;5966;52.402;5.322;2022-09-21T13:00:19;2.57;;;0.80;;
11817;SDS011;5966;52.402;5.322;2022-09-21T13:02:53;1.20;;;0.60;;
11817;SDS011;5966;52.402;5.322;2022-09-21T13:05:30;2.80;;;0.80;;
11817;SDS011;5966;52.402;5.322;2022-09-21T13:08:13;2.47;;;1.10;;
11817;SDS011;5966;52.402;5.322;2022-09-21T13:11:05;2.23;;;0.90;;
11817;SDS011;5966;52.402;5.322;2022-09-21T13:13:35;3.63;;;0.90;;
11817;SDS011;5966;52.402;5.322;2022-09-21T13:16:20;3.47;;;0.90;;
11817;SDS011;5966;52.402;5.322;2022-09-21T13:22:09;3.47;;;1.00;;
11817;SDS011;5966;52.402;5.322;2022-09-21T13:24:56;1.60;;;0.67;;
11817;SDS011;5966;52.402;5.322;2022-09-21T13:28:02;2.37;;;0.90;;
11817;SDS011;5966;52.402;5.322;2022-09-21T13:30:44;7.30;;;1.43;;
11817;SDS011;5966;52.402;5.322;2022-09-21T13:46:57;1.60;;;0.53;;
11817;SDS011;5966;52.402;5.322;2022-09-21T13:49:37;2.37;;;0.90;;
11817;SDS011;5966;52.402;5.322;2022-09-21T13:52:33;2.80;;;0.83;;
11817;SDS011;5966;52.402;5.322;2022-09-21T13:55:22;1.53;;;0.70;;
11817;SDS011;5966;52.402;5.322;2022-09-21T13:57:57;1.53;;;0.73;;
11817;SDS011;5966;52.402;5.322;2022-09-21T14:00:35;2.20;;;0.83;;
11817;SDS011;5966;52.402;5.322;2022-09-21T14:03:22;3.30;;;0.93;;
11817;SDS011;5966;52.402;5.322;2022-09-21T14:06:00;6.73;;;1.00;;
11817;SDS011;5966;52.402;5.322;2022-09-21T14:08:53;2.87;;;1.00;;
11817;SDS011;5966;52.402;5.322;2022-09-21T14:11:34;5.30;;;1.00;;
11817;SDS011;5966;52.402;5.322;2022-09-21T14:14:13;3.73;;;1.13;;
11817;SDS011;5966;52.402;5.322;2022-09-21T14:22:46;2.17;;;0.80;;
11817;SDS011;5966;52.402;5.322;2022-09-21T14:25:45;1.13;;;0.90;;
11817;SDS011;5966;52.402;5.322;2022-09-21T14:28:18;1.40;;;0.60;;
11817;SDS011;5966;52.402;5.322;2022-09-21T14:30:54;3.13;;;1.10;;
11817;SDS011;5966;52.402;5.322;2022-09-21T14:33:41;2.63;;;0.90;;
11817;SDS011;5966;52.402;5.322;2022-09-21T14:36:14;2.60;;;0.80;;
11817;SDS011;5966;52.402;5.322;2022-09-21T14:39:05;2.57;;;0.80;;
11817;SDS011;5966;52.402;5.322;2022-09-21T14:41:59;1.70;;;0.87;;
11817;SDS011;5966;52.402;5.322;2022-09-21T14:44:33;2.90;;;0.87;;
11817;SDS011;5966;52.402;5.322;2022-09-21T14:47:22;2.77;;;1.07;;
11817;SDS011;5966;52.402;5.322;2022-09-21T14:50:31;2.30;;;0.97;;
11817;SDS011;5966;52.402;5.322;2022-09-21T14:53:11;3.57;;;0.87;;
11817;SDS011;5966;52.402;5.322;2022-09-21T14:56:04;2.27;;;0.97;;
11817;SDS011;5966;52.402;5.322;2022-09-21T14:58:57;3.27;;;1.00;;
11817;SDS011;5966;52.402;5.322;2022-09-21T15:05:04;1.10;;;0.60;;
11817;SDS011;5966;52.402;5.322;2022-09-21T15:07:46;4.43;;;1.20;;
11817;SDS011;5966;52.402;5.322;2022-09-21T15:11:01;3.17;;;0.90;;
11817;SDS011;5966;52.402;5.322;2022-09-21T15:13:46;3.03;;;0.90;;
11817;SDS011;5966;52.402;5.322;2022-09-21T15:16:34;6.57;;;1.20;;
11817;SDS011;5966;52.402;5.322;2022-09-21T15:19:10;1.57;;;0.80;;
11817;SDS011;5966;52.402;5.322;2022-09-21T15:21:42;4.03;;;0.90;;
11817;SDS011;5966;52.402;5.322;2022-09-21T15:24:18;2.43;;;0.83;;
11817;SDS011;5966;52.402;5.322;2022-09-21T15:27:06;0.83;;;0.70;;
11817;SDS011;5966;52.402;5.322;2022-09-21T15:29:36;2.57;;;1.13;;
11817;SDS011;5966;52.402;5.322;2022-09-21T15:32:05;2.67;;;1.20;;
11817;SDS011;5966;52.402;5.322;2022-09-21T15:34:33;2.43;;;1.30;;
11817;SDS011;5966;52.402;5.322;2022-09-21T15:37:05;2.00;;;1.00;;
11817;SDS011;5966;52.402;5.322;2022-09-21T15:39:45;1.53;;;0.80;;
11817;SDS011;5966;52.402;5.322;2022-09-21T15:42:34;3.07;;;0.83;;
11817;SDS011;5966;52.402;5.322;2022-09-21T15:45:13;2.00;;;0.90;;
11817;SDS011;5966;52.402;5.322;2022-09-21T15:47:47;2.30;;;0.90;;
11817;SDS011;5966;52.402;5.322;2022-09-21T15:50:15;3.60;;;0.73;;
11817;SDS011;5966;52.402;5.322;2022-09-21T15:52:49;3.00;;;0.70;;
11817;SDS011;5966;52.402;5.322;2022-09-21T15:55:20;4.00;;;0.77;;
11817;SDS011;5966;52.402;5.322;2022-09-21T15:57:53;2.53;;;0.93;;
11817;SDS011;5966;52.402;5.322;2022-09-21T16:00:29;2.47;;;0.93;;
11817;SDS011;5966;52.402;5.322;2022-09-21T16:03:06;2.67;;;0.73;;
11817;SDS011;5966;52.402;5.322;2022-09-21T16:05:46;3.20;;;1.00;;
11817;SDS011;5966;52.402;5.322;2022-09-21T16:08:28;1.80;;;0.73;;
11817;SDS011;5966;52.402;5.322;2022-09-21T16:11:15;1.87;;;0.70;;
11817;SDS011;5966;52.402;5.322;2022-09-21T16:13:57;1.70;;;1.00;;
11817;SDS011;5966;52.402;5.322;2022-09-21T16:20:15;2.77;;;0.80;;
11817;SDS011;5966;52.402;5.322;2022-09-21T16:23:25;3.40;;;0.90;;
11817;SDS011;5966;52.402;5.322;2022-09-21T16:26:15;3.43;;;1.40;;
11817;SDS011;5966;52.402;5.322;2022-09-21T16:28:55;2.50;;;0.70;;
11817;SDS011;5966;52.402;5.322;2022-09-21T16:31:48;2.37;;;0.80;;
11817;SDS011;5966;52.402;5.322;2022-09-21T16:34:19;4.13;;;0.73;;
11817;SDS011;5966;52.402;5.322;2022-09-21T16:36:54;3.00;;;0.80;;
11817;SDS011;5966;52.402;5.322;2022-09-21T16:39:25;4.43;;;0.97;;
11817;SDS011;5966;52.402;5.322;2022-09-21T16:41:57;2.03;;;1.00;;
11817;SDS011;5966;52.402;5.322;2022-09-21T16:44:33;1.77;;;0.77;;
11817;SDS011;5966;52.402;5.322;2022-09-21T16:47:17;1.83;;;0.67;;
11817;SDS011;5966;52.402;5.322;2022-09-21T16:50:05;4.23;;;1.10;;
11817;SDS011;5966;52.402;5.322;2022-09-21T16:52:45;2.43;;;0.97;;
11817;SDS011;5966;52.402;5.322;2022-09-21T16:55:29;1.40;;;0.83;;
11817;SDS011;5966;52.402;5.322;2022-09-21T16:58:07;1.53;;;0.60;;
11817;SDS011;5966;52.402;5.322;2022-09-21T17:00:51;1.33;;;0.70;;